Peerless, Montana
Current Conditions -  °F | °C
As of 4:53 AM on Thursday 23 Oct 2014 (Local Time) from KOLF Reporting Station
Clear Clear  
Wind Chill: 29°   Ceiling: Unl
Heat Index: 29°   Visibility: 10mi
Dew Point: 25°   Wind: 3mph
Humidity: 85%   Direction: 110°ESE
Pressure: 29.83"   Gusts: NA
Location:  48.79°N, 105.84°W
Report Text: KOLF 231053Z AUTO 11003KT 10SM CLR M02/M04 A2983 RMK AO2 SLP113 T10171039
Loading
Personal Weather Stations






























Interactive Weather Map
Tropical Storm Tracking
New forecast layout! Learn more

10-Day Weather Forecast

Advertisements
Track Severe Weather on mobile